Time;durP1;ratioP1;P1;durP2;ratioP2;P2;SDS_P1;SDS_P2;PMS_P1;PMS_P2;Temp;Humidity;BMP_temperature;BMP_pressure;BME280_temperature;BME280_humidity;BME280_pressure;Samples;Min_cycle;Max_cycle;Signal;HPM_P1;HPM_P2
2022/10/02 00:02:10;;;;;;;;;;;13.80;99.90;;;;;;8421798;28;19927;-78
2022/10/02 00:06:19;;;;;;;;;;;13.80;99.90;;;;;;8264495;28;19941;-77
2022/10/02 00:10:23;;;;;;;;;;;13.70;99.90;;;;;;8342725;28;19924;-77
2022/10/02 00:14:27;;;;;;;;;;;13.60;99.90;;;;;;8421417;28;19920;-77
2022/10/02 00:18:30;;;;;;;;;;;13.60;99.90;;;;;;8421693;28;19927;-78
2022/10/02 00:22:36;;;;;;;;;;;13.50;99.90;;;;;;8433652;28;20340;-78
2022/10/02 00:26:49;;;;;;;;;;;13.50;99.90;;;;;;8431444;28;19967;-78
2022/10/02 00:30:54;;;;;;;;;;;13.40;99.90;;;;;;8428548;28;19919;-77
2022/10/02 00:35:07;;;;;;;;;;;13.40;99.90;;;;;;8427561;28;19930;-77
2022/10/02 00:39:15;;;;;;;;;;;13.40;99.90;;;;;;8434614;28;19920;-77
2022/10/02 00:43:27;;;;;;;;;;;13.40;99.90;;;;;;8411577;28;19919;-78
2022/10/02 00:47:31;;;;;;;;;;;13.50;99.90;;;;;;8422883;28;19921;-77
2022/10/02 00:51:42;;;;;;;;;;;13.50;99.90;;;;;;8417321;28;20051;-78
2022/10/02 00:55:46;;;;;;;;;;;13.50;99.90;;;;;;8425153;28;20292;-77
2022/10/02 01:00:07;;;;;;;;;;;13.50;99.90;;;;;;8439711;28;19954;-78
2022/10/02 01:04:32;;;;;;;;;;;13.50;99.90;;;;;;8433936;28;19923;-78
2022/10/02 01:08:34;;;;;;;;;;;13.60;99.90;;;;;;8410865;28;19924;-77
2022/10/02 01:12:36;;;;;;;;;;;13.60;99.90;;;;;;8421162;28;19920;-78
2022/10/02 01:16:40;;;;;;;;;;;13.60;99.90;;;;;;8430050;28;19928;-77
2022/10/02 01:20:44;;;;;;;;;;;13.60;99.90;;;;;;8435683;28;20291;-78
2022/10/02 01:24:49;;;;;;;;;;;13.70;99.90;;;;;;8422943;28;19924;-78
2022/10/02 01:28:51;;;;;;;;;;;13.70;99.90;;;;;;8428695;28;20030;-78
2022/10/02 01:32:57;;;;;;;;;;;13.70;99.90;;;;;;8420557;28;19920;-78
2022/10/02 01:36:58;;;;;;;;;;;13.80;99.90;;;;;;8433155;28;20254;-77
2022/10/02 01:41:00;;;;;;;;;;;13.80;99.90;;;;;;8429037;28;19920;-78
2022/10/02 01:45:04;;;;;;;;;;;13.80;99.90;;;;;;8416364;28;19946;-78
2022/10/02 01:49:20;;;;;;;;;;;13.90;99.90;;;;;;8444103;28;19927;-76
2022/10/02 01:53:31;;;;;;;;;;;13.90;99.90;;;;;;8412545;28;19924;-77
2022/10/02 01:57:53;;;;;;;;;;;14.00;99.90;;;;;;8430363;28;19924;-78
2022/10/02 02:01:54;;;;;;;;;;;14.00;99.90;;;;;;8407920;28;20381;-78
2022/10/02 02:06:08;;;;;;;;;;;14.00;99.90;;;;;;8441886;28;19927;-77
2022/10/02 02:10:17;;;;;;;;;;;14.10;99.90;;;;;;8422307;28;20283;-78
2022/10/02 02:14:24;;;;;;;;;;;14.00;99.90;;;;;;8426243;28;19920;-77
2022/10/02 02:18:34;;;;;;;;;;;14.10;99.90;;;;;;8417657;28;20011;-77
2022/10/02 02:22:39;;;;;;;;;;;14.00;99.90;;;;;;8406824;28;19920;-77
2022/10/02 02:26:42;;;;;;;;;;;14.00;99.90;;;;;;8429086;28;19928;-77
2022/10/02 02:30:45;;;;;;;;;;;14.00;99.90;;;;;;8424046;28;19962;-77
2022/10/02 02:34:50;;;;;;;;;;;14.00;99.90;;;;;;8407918;28;19926;-77
2022/10/02 02:38:56;;;;;;;;;;;14.00;99.90;;;;;;8427172;28;20019;-77
2022/10/02 02:43:09;;;;;;;;;;;14.00;99.90;;;;;;8418352;28;19919;-77
2022/10/02 02:47:15;;;;;;;;;;;14.00;99.90;;;;;;8441705;28;19943;-77
2022/10/02 02:51:19;;;;;;;;;;;14.00;99.90;;;;;;8420741;28;20582;-77
2022/10/02 02:55:23;;;;;;;;;;;13.90;99.90;;;;;;8404245;28;19920;-77
2022/10/02 02:59:27;;;;;;;;;;;13.90;99.90;;;;;;8451466;28;19920;-77
2022/10/02 03:03:29;;;;;;;;;;;13.90;99.90;;;;;;8395120;28;19927;-77
2022/10/02 03:07:31;;;;;;;;;;;13.80;99.90;;;;;;8416446;28;19920;-77
2022/10/02 03:11:35;;;;;;;;;;;13.80;99.90;;;;;;8424896;28;20387;-78
2022/10/02 03:15:37;;;;;;;;;;;13.80;99.90;;;;;;8435987;28;19924;-77
2022/10/02 03:19:58;;;;;;;;;;;13.80;99.90;;;;;;8433528;28;19920;-77
2022/10/02 03:24:09;;;;;;;;;;;13.70;99.90;;;;;;8425691;28;19920;-78
2022/10/02 03:28:13;;;;;;;;;;;13.70;99.90;;;;;;8437473;28;20351;-78
2022/10/02 03:32:16;;;;;;;;;;;13.70;99.90;;;;;;8415875;28;20160;-77
2022/10/02 03:36:19;;;;;;;;;;;13.60;99.90;;;;;;8430020;28;19946;-78
2022/10/02 03:40:25;;;;;;;;;;;13.60;99.90;;;;;;8444737;28;20018;-77
2022/10/02 03:44:26;;;;;;;;;;;13.60;99.90;;;;;;8428606;28;19924;-77
2022/10/02 03:48:28;;;;;;;;;;;13.60;99.90;;;;;;8450452;27;20014;-77
2022/10/02 03:52:30;;;;;;;;;;;13.60;99.90;;;;;;8434287;28;19926;-77
2022/10/02 03:56:37;;;;;;;;;;;13.60;99.90;;;;;;8427456;28;19926;-77
2022/10/02 04:00:59;;;;;;;;;;;13.60;99.90;;;;;;8430767;28;19950;-77
2022/10/02 04:05:07;;;;;;;;;;;13.60;99.90;;;;;;8402061;28;19919;-77
2022/10/02 04:09:17;;;;;;;;;;;13.60;99.90;;;;;;8430405;28;19966;-77
2022/10/02 04:13:19;;;;;;;;;;;13.60;99.90;;;;;;8403658;28;19928;-77
2022/10/02 04:17:32;;;;;;;;;;;13.60;99.90;;;;;;8424222;28;20367;-77
2022/10/02 04:21:38;;;;;;;;;;;13.50;99.90;;;;;;8450928;28;20283;-77
2022/10/02 04:25:43;;;;;;;;;;;13.50;99.90;;;;;;8434262;28;19920;-77
2022/10/02 04:29:45;;;;;;;;;;;13.60;99.90;;;;;;8427630;28;20326;-78
2022/10/02 04:33:47;;;;;;;;;;;13.60;99.90;;;;;;8448958;28;19926;-78
2022/10/02 04:38:01;;;;;;;;;;;13.60;99.90;;;;;;8440526;27;20511;-78
2022/10/02 04:42:21;;;;;;;;;;;13.70;99.90;;;;;;8433782;28;20350;-78
2022/10/02 04:46:30;;;;;;;;;;;13.70;99.90;;;;;;8431190;28;19926;-78
2022/10/02 04:50:40;;;;;;;;;;;13.70;99.90;;;;;;8441726;27;20339;-78
2022/10/02 04:55:06;;;;;;;;;;;13.70;99.90;;;;;;8417723;28;19924;-78
2022/10/02 04:59:15;;;;;;;;;;;13.60;99.90;;;;;;8438624;28;19959;-78
2022/10/02 05:03:35;;;;;;;;;;;13.70;99.90;;;;;;8422999;28;19920;-78
2022/10/02 05:07:48;;;;;;;;;;;13.60;99.90;;;;;;8409117;28;19934;-78
2022/10/02 05:12:06;;;;;;;;;;;13.60;99.90;;;;;;8444362;28;19948;-78
2022/10/02 05:16:17;;;;;;;;;;;13.60;99.90;;;;;;8419278;28;20386;-78
2022/10/02 05:20:38;;;;;;;;;;;13.50;99.90;;;;;;8411083;28;19927;-78
2022/10/02 05:24:39;;;;;;;;;;;13.60;99.90;;;;;;8437290;28;20298;-78
2022/10/02 05:29:00;;;;;;;;;;;13.50;99.90;;;;;;8445172;28;19923;-78
2022/10/02 05:33:09;;;;;;;;;;;13.50;99.90;;;;;;8426711;28;20375;-77
2022/10/02 05:37:19;;;;;;;;;;;13.50;99.90;;;;;;8439539;28;20366;-78
2022/10/02 05:41:39;;;;;;;;;;;13.50;99.90;;;;;;8392359;28;19929;-78
2022/10/02 05:46:14;;;;;;;;;;;13.50;99.90;;;;;;8403624;28;19930;-78
2022/10/02 05:50:15;;;;;;;;;;;13.50;99.90;;;;;;8387657;28;19925;-78
2022/10/02 05:54:24;;;;;;;;;;;13.60;99.90;;;;;;8377653;28;20346;-77
2022/10/02 05:58:49;;;;;;;;;;;13.60;99.90;;;;;;8383920;28;19946;-78
2022/10/02 06:02:55;;;;;;;;;;;13.60;99.90;;;;;;8395253;28;19920;-77
2022/10/02 06:06:59;;;;;;;;;;;13.60;99.90;;;;;;8382734;28;20003;-78
2022/10/02 06:11:07;;;;;;;;;;;13.60;99.90;;;;;;8390269;28;19926;-78
2022/10/02 06:15:21;;;;;;;;;;;13.60;99.90;;;;;;8371179;28;19924;-77
2022/10/02 06:19:31;;;;;;;;;;;13.60;99.90;;;;;;8385671;28;20360;-77
2022/10/02 06:23:40;;;;;;;;;;;13.60;99.90;;;;;;8409007;28;20274;-78
2022/10/02 06:27:50;;;;;;;;;;;13.60;99.90;;;;;;8410452;28;19924;-78
2022/10/02 06:31:56;;;;;;;;;;;13.60;99.90;;;;;;8385057;28;19925;-78
2022/10/02 06:35:57;;;;;;;;;;;13.60;99.90;;;;;;8381232;28;19960;-78
2022/10/02 06:40:15;;;;;;;;;;;13.60;99.90;;;;;;8366026;28;19921;-77
2022/10/02 06:44:22;;;;;;;;;;;13.60;99.90;;;;;;8365874;28;19920;-78
2022/10/02 06:48:24;;;;;;;;;;;13.60;99.90;;;;;;8413170;28;19926;-77
2022/10/02 06:52:35;;;;;;;;;;;13.60;99.90;;;;;;8389141;28;20164;-77
2022/10/02 06:56:38;;;;;;;;;;;13.60;99.90;;;;;;8402163;28;20331;-78
2022/10/02 07:00:48;;;;;;;;;;;13.60;99.90;;;;;;8387561;28;19920;-77
2022/10/02 07:04:53;;;;;;;;;;;13.70;99.90;;;;;;8366051;28;19964;-77
2022/10/02 07:08:55;;;;;;;;;;;13.80;99.90;;;;;;8374584;28;19924;-77
2022/10/02 07:13:11;;;;;;;;;;;13.90;99.90;;;;;;8391038;28;20432;-78
2022/10/02 07:17:31;;;;;;;;;;;14.00;99.90;;;;;;8374484;28;19928;-77
2022/10/02 07:21:39;;;;;;;;;;;14.10;99.90;;;;;;8385560;28;19927;-77
2022/10/02 07:25:40;;;;;;;;;;;14.20;99.90;;;;;;8387014;28;19920;-78
2022/10/02 07:29:55;;;;;;;;;;;14.20;99.90;;;;;;8373736;28;19924;-78
2022/10/02 07:33:57;;;;;;;;;;;14.30;99.90;;;;;;8371183;28;19928;-78
2022/10/02 07:37:58;;;;;;;;;;;14.40;99.90;;;;;;8385956;28;20051;-77
2022/10/02 07:42:07;;;;;;;;;;;14.40;99.90;;;;;;8397369;28;19930;-78
2022/10/02 07:46:20;;;;;;;;;;;14.40;99.90;;;;;;8436210;28;19924;-78
2022/10/02 07:50:21;;;;;;;;;;;14.50;99.90;;;;;;8436230;28;19924;-77
2022/10/02 07:54:46;;;;;;;;;;;14.60;99.90;;;;;;8398888;28;19926;-78
2022/10/02 07:58:53;;;;;;;;;;;14.60;99.90;;;;;;8437002;28;19962;-78
2022/10/02 08:02:59;;;;;;;;;;;14.70;99.90;;;;;;8423936;28;20002;-78
2022/10/02 08:07:02;;;;;;;;;;;14.70;99.90;;;;;;8423425;28;19966;-77
2022/10/02 08:11:18;;;;;;;;;;;14.80;99.90;;;;;;8422683;28;20351;-78
2022/10/02 08:15:21;;;;;;;;;;;14.90;99.90;;;;;;8431312;28;19935;-77
2022/10/02 08:19:29;;;;;;;;;;;15.00;99.90;;;;;;8431669;28;19919;-77
2022/10/02 08:23:49;;;;;;;;;;;15.00;99.90;;;;;;8449886;28;20413;-78
2022/10/02 08:28:09;;;;;;;;;;;15.10;99.90;;;;;;8431313;28;19973;-78
2022/10/02 08:32:12;;;;;;;;;;;15.20;99.90;;;;;;8415945;28;20014;-78
2022/10/02 08:36:25;;;;;;;;;;;15.20;99.90;;;;;;8448010;28;20025;-78
2022/10/02 08:40:53;;;;;;;;;;;15.30;99.90;;;;;;8441623;28;20023;-78
2022/10/02 08:45:14;;;;;;;;;;;15.30;99.90;;;;;;8397457;28;19928;-78
2022/10/02 08:49:21;;;;;;;;;;;15.40;99.90;;;;;;8426075;28;19930;-78
2022/10/02 08:53:43;;;;;;;;;;;15.50;99.90;;;;;;8448065;28;19931;-78
2022/10/02 08:57:47;;;;;;;;;;;15.60;99.90;;;;;;8418564;28;19921;-77
2022/10/02 09:02:08;;;;;;;;;;;15.70;99.90;;;;;;8446922;27;19920;-78
2022/10/02 09:06:29;;;;;;;;;;;15.70;99.90;;;;;;8442454;28;19931;-78
2022/10/02 09:10:44;;;;;;;;;;;15.80;99.90;;;;;;8439881;28;20391;-77
2022/10/02 09:14:47;;;;;;;;;;;15.90;99.90;;;;;;8427974;28;20340;-78
2022/10/02 09:18:55;;;;;;;;;;;16.00;99.90;;;;;;8406897;28;20359;-78
2022/10/02 09:23:26;;;;;;;;;;;16.00;99.90;;;;;;8409697;28;20325;-77
2022/10/02 09:27:37;;;;;;;;;;;16.10;99.90;;;;;;8404828;28;19924;-77
2022/10/02 09:31:42;;;;;;;;;;;16.20;99.90;;;;;;8451092;28;19928;-78
2022/10/02 09:36:00;;;;;;;;;;;16.20;99.90;;;;;;8412755;28;19919;-77
2022/10/02 09:40:24;;;;;;;;;;;16.20;99.90;;;;;;8450130;27;19970;-78
2022/10/02 09:44:43;;;;;;;;;;;16.20;99.90;;;;;;8416151;28;19935;-78
2022/10/02 09:48:51;;;;;;;;;;;16.20;99.90;;;;;;8432071;28;19924;-77
2022/10/02 09:53:11;;;;;;;;;;;16.20;99.90;;;;;;8442551;28;19930;-78
2022/10/02 09:57:15;;;;;;;;;;;16.30;99.90;;;;;;8429354;28;19981;-77
2022/10/02 10:01:31;;;;;;;;;;;16.40;99.90;;;;;;8434118;28;19928;-78
2022/10/02 10:05:47;;;;;;;;;;;16.50;99.90;;;;;;8440100;28;19946;-78
2022/10/02 10:10:03;;;;;;;;;;;16.50;99.90;;;;;;8455818;28;19919;-77
2022/10/02 10:14:17;;;;;;;;;;;16.40;99.90;;;;;;8423462;28;19923;-78
2022/10/02 10:18:29;;;;;;;;;;;16.50;99.90;;;;;;8380157;28;19923;-77
2022/10/02 10:22:50;;;;;;;;;;;16.70;99.90;;;;;;8399962;28;19919;-77
2022/10/02 10:27:03;;;;;;;;;;;17.00;99.90;;;;;;8396741;28;19928;-79
2022/10/02 10:31:27;;;;;;;;;;;17.10;99.90;;;;;;8399691;28;19969;-78
2022/10/02 10:36:07;;;;;;;;;;;17.00;99.90;;;;;;8400415;28;19932;-77
2022/10/02 10:40:09;;;;;;;;;;;16.90;99.90;;;;;;8294264;28;20507;-77
2022/10/02 10:44:22;;;;;;;;;;;16.80;99.90;;;;;;8348559;28;19920;-78
2022/10/02 10:48:33;;;;;;;;;;;16.80;99.90;;;;;;8405741;28;20230;-77
2022/10/02 10:52:53;;;;;;;;;;;17.00;99.90;;;;;;8405589;28;19920;-77
2022/10/02 10:57:09;;;;;;;;;;;17.20;99.90;;;;;;8399032;28;19930;-78
2022/10/02 11:01:37;;;;;;;;;;;17.40;99.90;;;;;;8406235;28;20405;-77
2022/10/02 11:05:52;;;;;;;;;;;17.60;99.90;;;;;;8399344;28;19928;-78
2022/10/02 11:10:09;;;;;;;;;;;17.80;99.90;;;;;;8399844;28;19930;-78
2022/10/02 11:14:11;;;;;;;;;;;17.90;99.90;;;;;;8411458;28;20392;-78
2022/10/02 11:18:19;;;;;;;;;;;17.90;99.90;;;;;;8398751;28;19924;-78
2022/10/02 11:22:20;;;;;;;;;;;17.90;99.90;;;;;;8408788;28;20002;-77
2022/10/02 11:26:22;;;;;;;;;;;17.80;99.90;;;;;;8408643;28;19920;-78
2022/10/02 11:30:31;;;;;;;;;;;17.80;99.90;;;;;;8393390;28;19919;-78
2022/10/02 11:34:34;;;;;;;;;;;17.80;99.90;;;;;;8385642;28;19925;-77
2022/10/02 11:38:46;;;;;;;;;;;17.80;99.90;;;;;;8406532;28;20352;-77
2022/10/02 11:42:48;;;;;;;;;;;17.80;99.90;;;;;;8394527;28;19927;-78
2022/10/02 11:46:51;;;;;;;;;;;18.00;99.90;;;;;;8405382;28;19926;-77
2022/10/02 11:51:08;;;;;;;;;;;18.10;99.90;;;;;;8409357;28;19946;-78
2022/10/02 11:55:25;;;;;;;;;;;18.10;99.90;;;;;;8404195;28;19921;-78
2022/10/02 11:59:30;;;;;;;;;;;17.90;99.90;;;;;;8410115;28;19930;-78
2022/10/02 12:03:51;;;;;;;;;;;17.70;99.90;;;;;;8409609;28;20355;-78
2022/10/02 12:08:02;;;;;;;;;;;17.50;99.90;;;;;;8407011;28;19920;-77
2022/10/02 12:12:10;;;;;;;;;;;17.40;99.90;;;;;;8413730;28;19927;-77
2022/10/02 12:30:28;;;;;;;;;;;17.30;99.90;;;;;;8404090;28;19931;-78
2022/10/02 12:34:48;;;;;;;;;;;17.50;99.90;;;;;;8404988;28;20288;-78
2022/10/02 12:39:03;;;;;;;;;;;17.70;99.90;;;;;;8405812;28;20041;-78
2022/10/02 12:43:18;;;;;;;;;;;17.80;99.90;;;;;;8402129;28;22535;-78
2022/10/02 12:47:29;;;;;;;;;;;17.90;99.90;;;;;;8401554;28;20015;-78
2022/10/02 12:51:33;;;;;;;;;;;18.10;99.90;;;;;;8392358;28;19928;-78
2022/10/02 12:55:35;;;;;;;;;;;18.20;99.90;;;;;;8406071;28;19935;-78
2022/10/02 12:59:54;;;;;;;;;;;18.40;99.90;;;;;;8402147;28;19920;-78
2022/10/02 13:04:15;;;;;;;;;;;18.40;99.90;;;;;;8396979;28;19928;-78
2022/10/02 13:08:17;;;;;;;;;;;18.50;99.90;;;;;;8395833;28;20007;-79
2022/10/02 13:12:38;;;;;;;;;;;18.40;99.90;;;;;;8396742;28;19920;-79
2022/10/02 13:16:45;;;;;;;;;;;18.20;99.90;;;;;;8399474;28;19978;-78
2022/10/02 13:20:50;;;;;;;;;;;18.00;99.90;;;;;;8417444;28;20011;-78
2022/10/02 13:25:00;;;;;;;;;;;18.00;99.90;;;;;;8398717;28;20608;-78
2022/10/02 13:29:24;;;;;;;;;;;18.10;99.90;;;;;;8377463;28;19920;-78
2022/10/02 13:33:33;;;;;;;;;;;18.20;99.90;;;;;;8392758;28;19934;-79
2022/10/02 13:38:07;;;;;;;;;;;18.40;99.90;;;;;;8400145;28;20007;-78
2022/10/02 13:42:35;;;;;;;;;;;18.60;99.90;;;;;;8379209;28;20178;-78
2022/10/02 13:46:37;;;;;;;;;;;18.70;99.90;;;;;;8402656;28;19928;-78
2022/10/02 13:50:42;;;;;;;;;;;18.80;99.90;;;;;;8405077;28;19924;-79
2022/10/02 13:54:48;;;;;;;;;;;18.90;99.90;;;;;;8401496;28;20326;-79
2022/10/02 13:59:08;;;;;;;;;;;19.00;99.90;;;;;;8405110;28;20335;-78
2022/10/02 14:03:19;;;;;;;;;;;19.20;99.90;;;;;;8403576;28;20011;-78
2022/10/02 14:07:27;;;;;;;;;;;19.40;99.90;;;;;;8396427;28;19928;-79
2022/10/02 14:11:40;;;;;;;;;;;19.70;99.90;;;;;;8403585;28;20011;-78
2022/10/02 14:15:45;;;;;;;;;;;19.90;99.90;;;;;;8406207;28;20298;-78
2022/10/02 14:19:52;;;;;;;;;;;20.10;99.90;;;;;;8414695;27;20003;-78
2022/10/02 14:23:56;;;;;;;;;;;20.30;99.90;;;;;;8396323;28;19923;-79
2022/10/02 14:28:06;;;;;;;;;;;20.40;99.90;;;;;;8396817;28;19920;-79
2022/10/02 14:32:24;;;;;;;;;;;20.30;99.90;;;;;;8398942;28;20356;-79
2022/10/02 14:36:41;;;;;;;;;;;20.20;99.90;;;;;;8396523;28;20023;-79
2022/10/02 14:40:56;;;;;;;;;;;20.00;99.90;;;;;;8391124;28;19931;-82
2022/10/02 14:45:07;;;;;;;;;;;19.70;99.90;;;;;;8388186;28;19924;-78
2022/10/02 14:49:30;;;;;;;;;;;19.50;99.90;;;;;;8406064;28;19950;-79
2022/10/02 14:53:48;;;;;;;;;;;19.30;99.90;;;;;;8426930;28;20014;-79
2022/10/02 14:57:52;;;;;;;;;;;19.10;99.90;;;;;;8438940;27;19971;-78
2022/10/02 15:02:00;;;;;;;;;;;18.90;99.90;;;;;;8439634;28;19924;-79
2022/10/02 15:06:02;;;;;;;;;;;18.70;99.90;;;;;;8426723;27;20767;-78
2022/10/02 15:10:15;;;;;;;;;;;18.50;99.90;;;;;;8410821;28;19919;-78
2022/10/02 15:14:20;;;;;;;;;;;18.40;99.90;;;;;;8421708;28;19930;-79
2022/10/02 15:18:35;;;;;;;;;;;18.20;99.90;;;;;;8425502;28;20264;-79
2022/10/02 15:22:45;;;;;;;;;;;18.20;99.90;;;;;;8419653;28;19969;-79
2022/10/02 15:26:56;;;;;;;;;;;18.20;99.90;;;;;;8417767;28;19927;-78
2022/10/02 15:31:04;;;;;;;;;;;18.20;99.90;;;;;;8433026;27;19924;-78
2022/10/02 15:35:21;;;;;;;;;;;18.20;99.90;;;;;;8422495;28;19924;-78
2022/10/02 15:39:41;;;;;;;;;;;18.30;99.90;;;;;;8431463;28;20306;-78
2022/10/02 15:43:43;;;;;;;;;;;18.40;99.90;;;;;;8441844;27;20602;-78
2022/10/02 15:48:04;;;;;;;;;;;18.40;99.90;;;;;;8425314;28;19934;-79
2022/10/02 15:52:08;;;;;;;;;;;18.30;99.90;;;;;;8443175;27;19920;-78
2022/10/02 15:56:37;;;;;;;;;;;18.30;99.90;;;;;;8426714;28;19930;-78
2022/10/02 16:01:01;;;;;;;;;;;18.20;99.90;;;;;;8424342;28;20661;-78
2022/10/02 16:05:05;;;;;;;;;;;18.20;99.90;;;;;;8442781;27;20006;-79
2022/10/02 16:09:33;;;;;;;;;;;18.10;99.90;;;;;;8430342;28;20271;-78
2022/10/02 16:13:38;;;;;;;;;;;18.10;99.90;;;;;;8412452;28;19974;-78
2022/10/02 16:18:02;;;;;;;;;;;18.10;99.90;;;;;;8428495;28;19996;-78
2022/10/02 16:22:43;;;;;;;;;;;18.00;99.90;;;;;;8430195;28;19926;-78
2022/10/02 16:26:50;;;;;;;;;;;17.90;99.90;;;;;;8343399;28;19927;-78
2022/10/02 16:30:59;;;;;;;;;;;17.80;99.90;;;;;;8392554;27;19955;-78
2022/10/02 16:35:18;;;;;;;;;;;17.80;99.90;;;;;;8432392;27;21404;-78
2022/10/02 16:39:20;;;;;;;;;;;17.60;99.90;;;;;;8437861;27;19926;-79
2022/10/02 16:43:40;;;;;;;;;;;17.50;99.90;;;;;;8434432;27;19924;-78
2022/10/02 16:47:44;;;;;;;;;;;17.40;99.90;;;;;;8435788;27;20333;-78
2022/10/02 16:51:56;;;;;;;;;;;17.30;99.90;;;;;;8442071;27;19934;-78
2022/10/02 16:56:07;;;;;;;;;;;17.20;99.90;;;;;;8435977;27;19928;-78
2022/10/02 17:00:15;;;;;;;;;;;17.10;99.90;;;;;;8441820;27;19930;-77
2022/10/02 17:04:19;;;;;;;;;;;17.00;99.90;;;;;;8420455;28;19942;-78
2022/10/02 17:08:27;;;;;;;;;;;17.00;99.90;;;;;;8453179;27;20003;-79
2022/10/02 17:12:33;;;;;;;;;;;16.90;99.90;;;;;;8439534;28;20018;-78
2022/10/02 17:16:38;;;;;;;;;;;16.80;99.90;;;;;;8428147;27;20042;-78
2022/10/02 17:20:42;;;;;;;;;;;16.70;99.90;;;;;;8442604;27;19920;-78
2022/10/02 17:24:47;;;;;;;;;;;16.60;99.90;;;;;;8429004;28;20343;-78
2022/10/02 17:28:56;;;;;;;;;;;16.60;99.90;;;;;;8430851;28;19920;-78
2022/10/02 17:33:14;;;;;;;;;;;16.50;99.90;;;;;;8429605;27;19920;-78
2022/10/02 17:37:16;;;;;;;;;;;16.50;99.90;;;;;;8433046;28;19936;-78
2022/10/02 17:41:36;;;;;;;;;;;16.50;99.90;;;;;;8429941;27;20054;-78
2022/10/02 17:45:59;;;;;;;;;;;16.40;99.90;;;;;;8432439;27;19930;-78
2022/10/02 17:50:04;;;;;;;;;;;16.20;99.90;;;;;;8434639;28;19919;-79
2022/10/02 17:58:51;;;;;;;;;;;16.10;99.90;;;;;;8431609;27;19934;-78
2022/10/02 18:03:11;;;;;;;;;;;16.10;99.90;;;;;;8436886;27;20371;-77
2022/10/02 18:07:27;;;;;;;;;;;16.00;99.90;;;;;;8448788;27;20005;-78
2022/10/02 18:11:32;;;;;;;;;;;16.00;99.90;;;;;;8438275;27;19946;-78
2022/10/02 18:15:40;;;;;;;;;;;16.00;99.90;;;;;;8430841;28;20022;-78
2022/10/02 18:19:41;;;;;;;;;;;15.90;99.90;;;;;;8433990;28;20014;-78
2022/10/02 18:24:03;;;;;;;;;;;15.90;99.90;;;;;;8426247;28;19924;-78
2022/10/02 18:28:27;;;;;;;;;;;15.90;99.90;;;;;;8428762;27;19926;-78
2022/10/02 18:32:47;;;;;;;;;;;15.80;99.90;;;;;;8430761;27;19951;-79
2022/10/02 18:36:59;;;;;;;;;;;15.80;99.90;;;;;;8403410;27;19972;-78
2022/10/02 18:41:19;;;;;;;;;;;15.80;99.90;;;;;;8431950;27;19932;-78
2022/10/02 18:45:26;;;;;;;;;;;15.80;99.90;;;;;;8440106;27;19920;-79
2022/10/02 18:49:28;;;;;;;;;;;15.70;99.90;;;;;;8435427;27;20287;-79
2022/10/02 18:53:48;;;;;;;;;;;15.60;99.90;;;;;;8439448;27;19926;-78
2022/10/02 18:58:09;;;;;;;;;;;15.50;99.90;;;;;;8422225;27;20019;-79
2022/10/02 19:02:10;;;;;;;;;;;15.40;99.90;;;;;;8435036;28;19945;-78
2022/10/02 19:06:12;;;;;;;;;;;15.20;99.90;;;;;;8428071;28;19997;-78
2022/10/02 19:10:25;;;;;;;;;;;15.10;99.90;;;;;;8427837;28;20424;-78
2022/10/02 19:14:26;;;;;;;;;;;15.00;99.90;;;;;;8432939;28;20086;-78
2022/10/02 19:18:29;;;;;;;;;;;14.90;99.90;;;;;;8447325;27;19924;-78
2022/10/02 19:22:35;;;;;;;;;;;14.80;99.90;;;;;;8447881;27;20363;-78
2022/10/02 19:26:40;;;;;;;;;;;14.70;99.90;;;;;;8426366;28;19919;-78
2022/10/02 19:30:45;;;;;;;;;;;14.60;99.90;;;;;;8424617;28;19924;-79
2022/10/02 19:34:48;;;;;;;;;;;14.60;99.90;;;;;;8412538;28;19930;-78
2022/10/02 19:39:00;;;;;;;;;;;14.50;99.90;;;;;;8416001;28;19923;-78
2022/10/02 19:43:06;;;;;;;;;;;14.50;99.90;;;;;;8422905;28;19926;-78
2022/10/02 19:47:15;;;;;;;;;;;14.40;99.90;;;;;;8415862;28;20236;-78
2022/10/02 19:51:20;;;;;;;;;;;14.30;99.90;;;;;;8416520;28;20360;-78
2022/10/02 19:55:26;;;;;;;;;;;14.20;99.90;;;;;;8415274;28;20015;-78
2022/10/02 19:59:43;;;;;;;;;;;14.20;99.90;;;;;;8433908;27;20325;-78
2022/10/02 20:03:46;;;;;;;;;;;14.10;99.90;;;;;;8427165;28;19935;-77
2022/10/02 20:07:49;;;;;;;;;;;14.10;99.90;;;;;;8430482;27;19920;-78
2022/10/02 20:11:58;;;;;;;;;;;14.00;99.90;;;;;;8415556;28;20550;-78
2022/10/02 20:20:42;;;;;;;;;;;13.90;99.90;;;;;;8433917;28;19924;-78
2022/10/02 20:24:47;;;;;;;;;;;13.80;99.90;;;;;;8425672;28;19924;-78
2022/10/02 20:28:52;;;;;;;;;;;13.70;99.90;;;;;;8419287;28;19924;-78
2022/10/02 20:33:00;;;;;;;;;;;13.60;99.90;;;;;;8431504;27;21406;-78
2022/10/02 20:37:06;;;;;;;;;;;13.60;99.90;;;;;;8426576;27;19924;-78
2022/10/02 20:41:14;;;;;;;;;;;13.50;99.90;;;;;;8429746;27;19945;-78
2022/10/02 20:45:16;;;;;;;;;;;13.40;99.90;;;;;;8424584;27;19923;-78
2022/10/02 20:49:39;;;;;;;;;;;13.40;99.90;;;;;;8425595;27;20372;-78
2022/10/02 20:53:46;;;;;;;;;;;13.30;99.90;;;;;;8438965;27;20046;-78
2022/10/02 20:57:55;;;;;;;;;;;13.20;99.90;;;;;;8418573;27;19924;-78
2022/10/02 21:02:14;;;;;;;;;;;13.20;99.90;;;;;;8440978;27;19919;-78
2022/10/02 21:06:21;;;;;;;;;;;13.10;99.90;;;;;;8428639;28;19923;-78
2022/10/02 21:10:38;;;;;;;;;;;13.10;99.90;;;;;;8446102;27;20293;-78
2022/10/02 21:14:41;;;;;;;;;;;13.00;99.90;;;;;;8437107;28;20008;-79
2022/10/02 21:18:46;;;;;;;;;;;13.00;99.90;;;;;;8442405;27;19923;-78
2022/10/02 21:23:07;;;;;;;;;;;13.00;99.90;;;;;;8427438;28;19924;-78
2022/10/02 21:27:19;;;;;;;;;;;12.90;99.90;;;;;;8449756;28;19959;-78
2022/10/02 21:31:37;;;;;;;;;;;12.90;99.90;;;;;;8448612;27;19945;-79
2022/10/02 21:35:42;;;;;;;;;;;12.90;99.90;;;;;;8456560;27;20402;-78
2022/10/02 21:40:02;;;;;;;;;;;12.80;99.90;;;;;;8412890;28;20436;-78
2022/10/02 21:44:09;;;;;;;;;;;12.80;99.90;;;;;;8421841;28;20407;-79
2022/10/02 21:48:23;;;;;;;;;;;12.80;99.90;;;;;;8402546;28;19935;-79
2022/10/02 21:52:30;;;;;;;;;;;12.70;99.90;;;;;;8392965;28;20397;-78
2022/10/02 21:56:51;;;;;;;;;;;12.70;99.90;;;;;;8386276;28;19924;-78
2022/10/02 22:00:58;;;;;;;;;;;12.70;99.90;;;;;;8397663;28;19955;-78
2022/10/02 22:05:18;;;;;;;;;;;12.60;99.90;;;;;;8401707;28;20056;-78
2022/10/02 22:09:27;;;;;;;;;;;12.60;99.90;;;;;;8413489;28;19928;-79
2022/10/02 22:13:32;;;;;;;;;;;12.60;99.90;;;;;;8413890;28;19974;-78
2022/10/02 22:17:43;;;;;;;;;;;12.50;99.90;;;;;;8419361;28;20378;-78
2022/10/02 22:21:45;;;;;;;;;;;12.50;99.90;;;;;;8409852;28;19924;-78
2022/10/02 22:25:55;;;;;;;;;;;12.50;99.90;;;;;;8399225;28;19920;-78
2022/10/02 22:29:57;;;;;;;;;;;12.40;99.90;;;;;;8425416;28;20336;-78
2022/10/02 22:34:10;;;;;;;;;;;12.40;99.90;;;;;;8433201;28;19988;-78
2022/10/02 22:38:31;;;;;;;;;;;12.30;99.90;;;;;;8411458;28;19926;-78
2022/10/02 22:42:41;;;;;;;;;;;12.30;99.90;;;;;;8424160;28;20399;-78
2022/10/02 22:46:46;;;;;;;;;;;12.20;99.90;;;;;;8419052;28;19932;-78
2022/10/02 22:50:48;;;;;;;;;;;12.10;99.90;;;;;;8406148;28;20387;-78
2022/10/02 22:54:52;;;;;;;;;;;12.10;99.90;;;;;;8403277;28;20523;-79
2022/10/02 22:59:00;;;;;;;;;;;12.00;99.90;;;;;;8401163;28;20238;-78
2022/10/02 23:03:02;;;;;;;;;;;12.00;99.90;;;;;;8406884;28;19926;-78
2022/10/02 23:07:24;;;;;;;;;;;11.90;99.90;;;;;;8419760;28;19920;-78
2022/10/02 23:11:35;;;;;;;;;;;11.90;99.90;;;;;;8419110;28;19932;-78
2022/10/02 23:15:38;;;;;;;;;;;11.80;99.90;;;;;;8423020;28;19982;-78
2022/10/02 23:19:40;;;;;;;;;;;11.80;99.90;;;;;;8413707;28;19979;-78
2022/10/02 23:23:41;;;;;;;;;;;11.80;99.90;;;;;;8392820;28;20030;-78
2022/10/02 23:28:05;;;;;;;;;;;11.70;99.90;;;;;;8413611;28;19920;-78
2022/10/02 23:32:26;;;;;;;;;;;11.70;99.90;;;;;;8402180;28;19919;-78
2022/10/02 23:36:48;;;;;;;;;;;11.60;99.90;;;;;;8414003;28;19946;-78
2022/10/02 23:45:38;;;;;;;;;;;11.50;99.90;;;;;;8437773;28;19938;-78
2022/10/02 23:49:51;;;;;;;;;;;11.50;99.90;;;;;;8417132;28;20007;-78
2022/10/02 23:53:52;;;;;;;;;;;11.40;99.90;;;;;;8425347;28;19939;-78
2022/10/02 23:58:12;;;;;;;;;;;11.30;99.90;;;;;;8424919;28;20358;-78
